createdAt,value
2023-02-22T00:00:22.648Z,98467.00
2023-02-22T00:02:51.201Z,98477.00
2023-02-22T00:05:20.789Z,98467.00
2023-02-22T00:07:49.037Z,98468.00
2023-02-22T00:10:20.384Z,98454.00
2023-02-22T00:12:49.919Z,98460.00
2023-02-22T00:15:18.815Z,98460.00
2023-02-22T00:17:46.963Z,98459.00
2023-02-22T00:20:17.341Z,98463.00
2023-02-22T00:22:47.981Z,98458.00
2023-02-22T00:25:17.306Z,98455.00
2023-02-22T00:27:45.364Z,98466.00
2023-02-22T00:30:19.078Z,98459.00
2023-02-22T00:32:47.377Z,98456.00
2023-02-22T00:35:15.643Z,98462.00
2023-02-22T00:37:44.088Z,98460.00
2023-02-22T00:40:12.707Z,98460.00
2023-02-22T00:42:40.801Z,98447.00
2023-02-22T00:45:09.669Z,98455.00
2023-02-22T00:47:39.145Z,98453.00
2023-02-22T00:50:07.485Z,98451.00
2023-02-22T00:52:36.232Z,98443.00
2023-02-22T00:55:05.995Z,98455.00
2023-02-22T00:57:35.155Z,98441.00
2023-02-22T01:00:11.940Z,98452.00
2023-02-22T01:02:41.651Z,98441.00
2023-02-22T01:05:10.222Z,98449.00
2023-02-22T01:07:38.335Z,98436.00
2023-02-22T01:10:08.664Z,98438.00
2023-02-22T01:12:36.766Z,98434.00
2023-02-22T01:15:05.029Z,98435.00
2023-02-22T01:24:57.901Z,98424.00
2023-02-22T01:27:28.098Z,98418.00
2023-02-22T01:29:56.501Z,98422.00
2023-02-22T01:32:24.628Z,98433.00
2023-02-22T01:34:54.292Z,98429.00
2023-02-22T01:37:22.350Z,98419.00
2023-02-22T01:39:50.391Z,98414.00
2023-02-22T01:42:18.501Z,98420.00
2023-02-22T01:44:48.085Z,98412.00
2023-02-22T01:47:16.344Z,98416.00
2023-02-22T01:49:45.723Z,98403.00
2023-02-22T01:52:16.902Z,98405.00
2023-02-22T01:54:46.647Z,98416.00
2023-02-22T01:57:17.063Z,98419.00
2023-02-22T01:59:47.524Z,98408.00
2023-02-22T02:02:15.574Z,98402.00
2023-02-22T02:04:43.692Z,98409.00
2023-02-22T02:07:14.035Z,98402.00
2023-02-22T02:09:49.359Z,98404.00
2023-02-22T02:12:18.138Z,98397.00
2023-02-22T02:14:47.643Z,98394.00
2023-02-22T02:17:17.681Z,98400.00
2023-02-22T02:19:48.894Z,98386.00
2023-02-22T02:22:31.368Z,98393.00
2023-02-22T02:25:42.663Z,98389.00
2023-02-22T02:28:34.492Z,98387.00
2023-02-22T02:31:22.113Z,98396.00
2023-02-22T02:33:52.126Z,98382.00
2023-02-22T02:36:21.739Z,98381.00
2023-02-22T02:38:52.148Z,98379.00
2023-02-22T02:41:22.143Z,98380.00
2023-02-22T02:43:54.598Z,98377.00
2023-02-22T02:46:25.019Z,98370.00
2023-02-22T02:48:56.979Z,98378.00
2023-02-22T02:51:26.326Z,98367.00
2023-02-22T02:53:54.349Z,98373.00
2023-02-22T02:56:23.514Z,98364.00
2023-02-22T02:58:52.950Z,98367.00
2023-02-22T03:01:26.723Z,98359.00
2023-02-22T03:04:07.077Z,98353.00
2023-02-22T03:07:10.678Z,98361.00
2023-02-22T03:09:47.000Z,98351.00
2023-02-22T03:12:31.588Z,98340.00
2023-02-22T03:15:04.394Z,98354.00
2023-02-22T03:17:41.473Z,98358.00
2023-02-22T03:20:12.750Z,98361.00
2023-02-22T03:22:44.235Z,98357.00
2023-02-22T03:25:14.407Z,98352.00
2023-02-22T03:27:44.748Z,98358.00
2023-02-22T03:30:15.785Z,98360.00
2023-02-22T03:32:46.052Z,98350.00
2023-02-22T03:35:17.948Z,98353.00
2023-02-22T03:37:47.515Z,98349.00
2023-02-22T03:40:17.650Z,98354.00
2023-02-22T03:42:47.322Z,98347.00
2023-02-22T03:45:15.953Z,98346.00
2023-02-22T03:47:45.909Z,98345.00
2023-02-22T03:50:16.390Z,98347.00
2023-02-22T03:52:44.492Z,98344.00
2023-02-22T03:55:12.691Z,98342.00
2023-02-22T03:57:42.674Z,98336.00
2023-02-22T04:00:12.619Z,98342.00
2023-02-22T04:02:40.747Z,98354.00
2023-02-22T04:05:09.289Z,98352.00
2023-02-22T04:07:38.754Z,98345.00
2023-02-22T04:10:08.722Z,98343.00
2023-02-22T04:12:36.822Z,98348.00
2023-02-22T04:15:05.527Z,98339.00
2023-02-22T04:17:33.557Z,98349.00
2023-02-22T04:20:01.670Z,98348.00
2023-02-22T04:22:29.712Z,98351.00
2023-02-22T04:24:59.223Z,98349.00
2023-02-22T04:27:27.299Z,98351.00
2023-02-22T04:29:55.676Z,98338.00
2023-02-22T04:32:23.720Z,98343.00
2023-02-22T04:34:51.803Z,98341.00
2023-02-22T04:37:19.804Z,98342.00
2023-02-22T04:39:47.909Z,98344.00
2023-02-22T04:42:17.375Z,98341.00
2023-02-22T04:44:45.427Z,98335.00
2023-02-22T04:47:13.474Z,98335.00
2023-02-22T04:49:41.498Z,98342.00
2023-02-22T04:52:09.568Z,98343.00
2023-02-22T04:54:37.670Z,98340.00
2023-02-22T04:57:05.765Z,98336.00
2023-02-22T04:59:35.202Z,98329.00
2023-02-22T05:02:03.729Z,98348.00
2023-02-22T05:04:32.028Z,98336.00
2023-02-22T05:07:00.140Z,98324.00
2023-02-22T05:09:28.196Z,98331.00
2023-02-22T05:11:56.269Z,98334.00
2023-02-22T05:14:26.688Z,98317.00
2023-02-22T05:16:56.929Z,98320.00
2023-02-22T05:19:25.374Z,98330.00
2023-02-22T05:21:53.386Z,98319.00
2023-02-22T05:24:21.422Z,98315.00
2023-02-22T05:26:51.292Z,98327.00
2023-02-22T05:29:19.383Z,98315.00
2023-02-22T05:31:47.436Z,98313.00
2023-02-22T05:34:17.040Z,98311.00
2023-02-22T05:36:46.559Z,98304.00
2023-02-22T05:39:14.717Z,98298.00
2023-02-22T05:41:42.774Z,98303.00
2023-02-22T05:44:10.881Z,98311.00
2023-02-22T05:46:39.138Z,98303.00
2023-02-22T05:49:07.286Z,98298.00
2023-02-22T05:51:36.729Z,98299.00
2023-02-22T05:54:04.940Z,98304.00
2023-02-22T05:56:33.106Z,98312.00
2023-02-22T05:59:01.279Z,98303.00
2023-02-22T06:01:29.424Z,98310.00
2023-02-22T06:03:57.538Z,98306.00
2023-02-22T06:06:25.568Z,98309.00
2023-02-22T06:08:54.946Z,98309.00
2023-02-22T06:11:23.003Z,98302.00
2023-02-22T06:13:51.846Z,98309.00
2023-02-22T06:16:21.097Z,98316.00
2023-02-22T06:18:49.357Z,98307.00
2023-02-22T06:21:17.962Z,98316.00
2023-02-22T06:23:46.140Z,98316.00
2023-02-22T06:26:16.851Z,98320.00
2023-02-22T06:28:44.866Z,98306.00
2023-02-22T06:31:12.943Z,98318.00
2023-02-22T06:33:40.983Z,98327.00
2023-02-22T06:36:10.629Z,98318.00
2023-02-22T06:38:38.682Z,98313.00
2023-02-22T06:41:06.908Z,98310.00
2023-02-22T06:43:36.351Z,98317.00
2023-02-22T06:46:04.437Z,98320.00
2023-02-22T06:48:32.637Z,98317.00
2023-02-22T06:51:00.739Z,98320.00
2023-02-22T06:53:28.815Z,98325.00
2023-02-22T06:55:56.858Z,98320.00
2023-02-22T06:58:24.884Z,98330.00
2023-02-22T07:00:54.448Z,98320.00
2023-02-22T07:03:22.578Z,98320.00
2023-02-22T07:05:50.660Z,98312.00
2023-02-22T07:08:18.748Z,98325.00
2023-02-22T07:10:46.849Z,98321.00
2023-02-22T07:13:15.472Z,98322.00
2023-02-22T07:15:43.511Z,98316.00
2023-02-22T07:18:14.069Z,98322.00
2023-02-22T07:20:42.146Z,98316.00
2023-02-22T07:23:10.206Z,98310.00
2023-02-22T07:25:38.302Z,98318.00
2023-02-22T07:28:06.479Z,98302.00
2023-02-22T07:30:35.034Z,98316.00
2023-02-22T07:33:04.082Z,98316.00
2023-02-22T07:35:36.705Z,98316.00
2023-02-22T07:38:06.130Z,98313.00
2023-02-22T07:40:34.332Z,98311.00
2023-02-22T07:43:04.711Z,98311.00
2023-02-22T07:45:34.546Z,98320.00
2023-02-22T07:48:03.708Z,98318.00
2023-02-22T07:50:33.661Z,98314.00
2023-02-22T07:53:08.308Z,98317.00
2023-02-22T07:55:36.331Z,98310.00
2023-02-22T07:58:05.566Z,98313.00
2023-02-22T08:00:35.013Z,98315.00
2023-02-22T08:03:03.906Z,98315.00
2023-02-22T08:05:33.718Z,98313.00
2023-02-22T08:08:02.229Z,98318.00
2023-02-22T08:10:30.983Z,98314.00
2023-02-22T08:12:59.509Z,98310.00
2023-02-22T08:15:29.544Z,98304.00
2023-02-22T08:17:58.020Z,98313.00
2023-02-22T08:20:26.164Z,98304.00
2023-02-22T08:22:55.661Z,98319.00
2023-02-22T08:25:25.333Z,98308.00
2023-02-22T08:27:58.647Z,98307.00
2023-02-22T08:30:30.800Z,98316.00
2023-02-22T08:32:59.229Z,98307.00
2023-02-22T08:35:28.080Z,98312.00
2023-02-22T08:37:58.634Z,98325.00
2023-02-22T08:40:27.876Z,98314.00
2023-02-22T08:42:56.000Z,98312.00
2023-02-22T08:45:24.228Z,98319.00
2023-02-22T08:47:52.451Z,98320.00
2023-02-22T08:50:21.952Z,98309.00
2023-02-22T08:52:51.333Z,98319.00
2023-02-22T08:55:22.441Z,98308.00
2023-02-22T08:57:50.766Z,98319.00
2023-02-22T09:00:19.333Z,98308.00
2023-02-22T09:02:47.358Z,98313.00
2023-02-22T09:05:17.121Z,98312.00
2023-02-22T09:07:45.509Z,98302.00
2023-02-22T09:10:15.499Z,98315.00
2023-02-22T09:12:44.925Z,98314.00
2023-02-22T09:15:13.057Z,98303.00
2023-02-22T09:17:41.100Z,98305.00
2023-02-22T09:20:10.287Z,98305.00
2023-02-22T09:22:38.343Z,98311.00
2023-02-22T09:25:16.288Z,98307.00
2023-02-22T09:27:48.109Z,98302.00
2023-02-22T09:30:20.724Z,98300.00
2023-02-22T09:32:48.931Z,98305.00
2023-02-22T09:35:17.108Z,98310.00
2023-02-22T09:37:45.288Z,98305.00
2023-02-22T09:40:24.743Z,98298.00
2023-02-22T09:43:10.232Z,98295.00
2023-02-22T09:45:40.676Z,98298.00
2023-02-22T09:48:21.274Z,98290.00
2023-02-22T09:50:49.983Z,98292.00
2023-02-22T09:53:29.762Z,98298.00
2023-02-22T09:56:00.158Z,98287.00
2023-02-22T09:58:33.477Z,98283.00
2023-02-22T10:01:15.549Z,98294.00
2023-02-22T10:03:49.787Z,98282.00
2023-02-22T10:06:21.244Z,98282.00
2023-02-22T10:08:50.179Z,98280.00
2023-02-22T10:11:24.604Z,98290.00
2023-02-22T10:13:57.861Z,98283.00
2023-02-22T10:16:27.784Z,98285.00
2023-02-22T10:19:10.773Z,98283.00
2023-02-22T10:21:54.064Z,98270.00
2023-02-22T10:24:30.607Z,98278.00
2023-02-22T10:26:58.708Z,98268.00
2023-02-22T10:29:31.079Z,98272.00
2023-02-22T10:32:01.341Z,98271.00
2023-02-22T10:34:31.300Z,98269.00
2023-02-22T10:37:01.764Z,98270.00
2023-02-22T10:39:32.235Z,98264.00
2023-02-22T10:42:05.963Z,98262.00
2023-02-22T10:44:35.528Z,98264.00
2023-02-22T10:47:04.830Z,98269.00
2023-02-22T10:49:35.543Z,98255.00
2023-02-22T10:52:04.569Z,98261.00
2023-02-22T10:54:33.604Z,98248.00
2023-02-22T10:57:03.821Z,98255.00
2023-02-22T10:59:34.169Z,98250.00
2023-02-22T11:02:10.941Z,98256.00
2023-02-22T11:04:49.710Z,98243.00
2023-02-22T11:07:21.148Z,98237.00
2023-02-22T11:09:51.388Z,98232.00
2023-02-22T11:12:21.075Z,98240.00
2023-02-22T11:14:49.619Z,98237.00
2023-02-22T11:17:23.473Z,98231.00
2023-02-22T11:19:51.738Z,98223.00
2023-02-22T11:22:23.845Z,98227.00
2023-02-22T11:24:57.945Z,98214.00
2023-02-22T11:27:32.874Z,98215.00
2023-02-22T11:30:20.835Z,98211.00
2023-02-22T11:32:51.422Z,98197.00
2023-02-22T11:35:21.870Z,98185.00
2023-02-22T11:37:50.015Z,98197.00
2023-02-22T11:40:19.978Z,98196.00
2023-02-22T11:42:48.177Z,98188.00
2023-02-22T11:45:20.877Z,98169.00
2023-02-22T11:47:59.098Z,98176.00
2023-02-22T11:50:29.465Z,98177.00
2023-02-22T11:53:09.450Z,98179.00
2023-02-22T11:55:43.242Z,98167.00
2023-02-22T11:58:23.854Z,98159.00
2023-02-22T12:00:55.190Z,98159.00
2023-02-22T12:03:34.104Z,98159.00
2023-02-22T12:06:20.350Z,98154.00
2023-02-22T12:08:57.176Z,98147.00
2023-02-22T12:11:26.912Z,98150.00
2023-02-22T12:14:03.595Z,98143.00
2023-02-22T12:16:38.082Z,98145.00
2023-02-22T12:19:13.271Z,98151.00
2023-02-22T12:21:42.927Z,98149.00
2023-02-22T12:24:14.475Z,98142.00
2023-02-22T12:26:43.309Z,98137.00
2023-02-22T12:29:14.540Z,98138.00
2023-02-22T12:31:45.487Z,98133.00
2023-02-22T12:34:27.354Z,98128.00
2023-02-22T12:36:57.087Z,98122.00
2023-02-22T12:39:29.561Z,98142.00
2023-02-22T12:41:57.867Z,98125.00
2023-02-22T12:44:27.759Z,98125.00
2023-02-22T12:47:00.146Z,98136.00
2023-02-22T12:49:31.911Z,98131.00
2023-02-22T12:52:15.788Z,98130.00
2023-02-22T12:54:50.426Z,98121.00
2023-02-22T12:57:21.390Z,98125.00
2023-02-22T12:59:50.606Z,98114.00
2023-02-22T13:02:21.507Z,98111.00
2023-02-22T13:04:51.143Z,98110.00
2023-02-22T13:07:22.545Z,98112.00
2023-02-22T13:10:18.732Z,98107.00
2023-02-22T13:12:51.368Z,98104.00
2023-02-22T13:15:21.668Z,98104.00
2023-02-22T13:17:54.871Z,98103.00
2023-02-22T13:20:26.208Z,98099.00
2023-02-22T13:22:56.734Z,98100.00
2023-02-22T13:25:26.598Z,98089.00
2023-02-22T13:27:59.355Z,98096.00
2023-02-22T13:30:30.665Z,98089.00
2023-02-22T13:33:08.078Z,98090.00
2023-02-22T13:35:43.562Z,98091.00
2023-02-22T13:38:44.873Z,98086.00
2023-02-22T13:41:20.342Z,98080.00
2023-02-22T13:44:09.770Z,98079.00
2023-02-22T13:47:07.244Z,98085.00
2023-02-22T13:49:53.123Z,98062.00
2023-02-22T13:52:23.845Z,98073.00
2023-02-22T13:54:54.570Z,98087.00
2023-02-22T13:57:24.424Z,98086.00
2023-02-22T14:00:21.346Z,98083.00
2023-02-22T14:03:01.406Z,98080.00
2023-02-22T14:05:53.787Z,98074.00
2023-02-22T14:08:45.623Z,98081.00
2023-02-22T14:11:44.289Z,98068.00
2023-02-22T14:14:17.774Z,98074.00
2023-02-22T14:16:45.875Z,98079.00
2023-02-22T14:19:18.193Z,98072.00
2023-02-22T14:22:02.163Z,98076.00
2023-02-22T14:24:42.735Z,98071.00
2023-02-22T14:27:10.776Z,98076.00
2023-02-22T14:29:51.153Z,98077.00
2023-02-22T14:32:19.452Z,98073.00
2023-02-22T14:34:52.275Z,98067.00
2023-02-22T14:37:24.012Z,98067.00
2023-02-22T14:39:54.413Z,98067.00
2023-02-22T14:42:24.392Z,98060.00
2023-02-22T14:44:55.980Z,98058.00
2023-02-22T14:47:28.338Z,98063.00
2023-02-22T14:49:58.475Z,98056.00
2023-02-22T14:52:28.127Z,98061.00
2023-02-22T14:55:05.430Z,98059.00
2023-02-22T14:57:39.701Z,98062.00
2023-02-22T15:00:20.259Z,98058.00
2023-02-22T15:02:48.658Z,98066.00
2023-02-22T15:05:19.553Z,98058.00
2023-02-22T15:07:52.019Z,98055.00
2023-02-22T15:10:25.195Z,98054.00
2023-02-22T15:12:54.708Z,98055.00
2023-02-22T15:15:24.014Z,98043.00
2023-02-22T15:17:56.078Z,98056.00
2023-02-22T15:20:25.206Z,98055.00
2023-02-22T15:22:53.384Z,98047.00
2023-02-22T15:25:26.598Z,98043.00
2023-02-22T15:27:54.677Z,98052.00
2023-02-22T15:30:26.593Z,98043.00
2023-02-22T15:33:03.987Z,98041.00
2023-02-22T15:35:34.488Z,98044.00
2023-02-22T15:38:04.060Z,98030.00
2023-02-22T15:40:34.091Z,98033.00
2023-02-22T15:43:03.080Z,98030.00
2023-02-22T15:45:33.399Z,98031.00
2023-02-22T15:48:01.571Z,98036.00
2023-02-22T15:50:30.528Z,98027.00
2023-02-22T15:52:59.215Z,98028.00
2023-02-22T15:55:29.445Z,98027.00
2023-02-22T15:58:01.716Z,98033.00
2023-02-22T16:00:38.052Z,98030.00
2023-02-22T16:03:06.321Z,98025.00
2023-02-22T16:05:39.360Z,98031.00
2023-02-22T16:08:14.391Z,98038.00
2023-02-22T16:10:43.221Z,98026.00
2023-02-22T16:13:30.948Z,98031.00
2023-02-22T16:16:02.007Z,98022.00
2023-02-22T16:18:33.207Z,98029.00
2023-02-22T16:21:04.258Z,98022.00
2023-02-22T16:23:33.691Z,98022.00
2023-02-22T16:26:19.749Z,98017.00
2023-02-22T16:28:53.282Z,98021.00
2023-02-22T16:31:22.422Z,98018.00
2023-02-22T16:33:51.258Z,98012.00
2023-02-22T16:36:19.957Z,98022.00
2023-02-22T16:38:48.555Z,98017.00
2023-02-22T16:41:19.821Z,98018.00
2023-02-22T16:43:50.779Z,98014.00
2023-02-22T16:46:20.640Z,98013.00
2023-02-22T16:48:49.031Z,98021.00
2023-02-22T16:51:22.036Z,98026.00
2023-02-22T16:53:50.609Z,98025.00
2023-02-22T16:56:20.261Z,98029.00
2023-02-22T16:58:50.799Z,98031.00
2023-02-22T17:01:20.495Z,98021.00
2023-02-22T17:03:48.663Z,98015.00
2023-02-22T17:06:16.993Z,98024.00
2023-02-22T17:08:45.233Z,98031.00
2023-02-22T17:11:14.002Z,98022.00
2023-02-22T17:13:42.211Z,98034.00
2023-02-22T17:16:13.643Z,98031.00
2023-02-22T17:18:45.940Z,98036.00
2023-02-22T17:21:14.086Z,98032.00
2023-02-22T17:23:44.369Z,98038.00
2023-02-22T17:26:13.695Z,98026.00
2023-02-22T17:28:43.663Z,98034.00
2023-02-22T17:31:16.946Z,98046.00
2023-02-22T17:33:46.429Z,98041.00
2023-02-22T17:36:14.846Z,98039.00
2023-02-22T17:38:43.239Z,98040.00
2023-02-22T17:41:11.656Z,98049.00
2023-02-22T17:43:39.714Z,98044.00
2023-02-22T17:46:08.987Z,98044.00
2023-02-22T17:48:37.337Z,98039.00
2023-02-22T17:51:10.708Z,98051.00
2023-02-22T17:53:40.141Z,98041.00
2023-02-22T17:56:08.762Z,98040.00
2023-02-22T17:58:37.059Z,98049.00
2023-02-22T18:01:05.390Z,98044.00
2023-02-22T18:03:33.554Z,98049.00
2023-02-22T18:06:02.130Z,98041.00
2023-02-22T18:08:32.247Z,98036.00
2023-02-22T18:11:05.241Z,98042.00
2023-02-22T18:13:33.301Z,98048.00
2023-02-22T18:16:04.993Z,98049.00
2023-02-22T18:18:33.267Z,98043.00
2023-02-22T18:21:01.527Z,98058.00
2023-02-22T18:23:31.782Z,98055.00
2023-02-22T18:26:10.487Z,98044.00
2023-02-22T18:28:39.686Z,98043.00
2023-02-22T18:31:08.929Z,98047.00
2023-02-22T18:33:37.197Z,98043.00
2023-02-22T18:36:06.064Z,98045.00
2023-02-22T18:38:36.875Z,98042.00
2023-02-22T18:41:06.193Z,98048.00
2023-02-22T18:43:35.690Z,98044.00
2023-02-22T18:46:08.090Z,98045.00
2023-02-22T18:48:36.370Z,98050.00
2023-02-22T18:51:05.815Z,98037.00
2023-02-22T18:53:34.094Z,98043.00
2023-02-22T18:56:05.803Z,98048.00
2023-02-22T18:58:33.964Z,98055.00
2023-02-22T19:01:03.149Z,98038.00
2023-02-22T19:03:32.516Z,98044.00
2023-02-22T19:06:03.101Z,98048.00
2023-02-22T19:08:32.571Z,98045.00
2023-02-22T19:11:08.112Z,98045.00
2023-02-22T19:13:36.535Z,98044.00
2023-02-22T19:16:04.906Z,98043.00
2023-02-22T19:18:33.147Z,98048.00
2023-02-22T19:21:02.521Z,98034.00
2023-02-22T19:23:34.441Z,98036.00
2023-02-22T19:26:05.061Z,98035.00
2023-02-22T19:28:34.907Z,98023.00
2023-02-22T19:31:12.659Z,98034.00
2023-02-22T19:33:40.791Z,98028.00
2023-02-22T19:36:09.888Z,98029.00
2023-02-22T19:38:38.001Z,98032.00
2023-02-22T19:41:12.455Z,98045.00
2023-02-22T19:43:40.624Z,98036.00
2023-02-22T19:46:08.888Z,98032.00
2023-02-22T19:48:37.015Z,98025.00
2023-02-22T19:51:06.351Z,98028.00
2023-02-22T19:53:34.464Z,98041.00
2023-02-22T19:56:06.359Z,98037.00
2023-02-22T19:58:36.767Z,98038.00
2023-02-22T20:01:12.361Z,98034.00
2023-02-22T20:03:41.015Z,98043.00
2023-02-22T20:06:10.142Z,98034.00
2023-02-22T20:08:42.190Z,98014.00
2023-02-22T20:11:10.717Z,98045.00
2023-02-22T20:13:40.490Z,98047.00
2023-02-22T20:16:10.002Z,98041.00
2023-02-22T20:18:38.163Z,98046.00
2023-02-22T20:21:10.189Z,98043.00
2023-02-22T20:23:40.325Z,98055.00
2023-02-22T20:26:10.709Z,98046.00
2023-02-22T20:28:41.261Z,98061.00
2023-02-22T20:31:11.219Z,98054.00
2023-02-22T20:33:41.943Z,98069.00
2023-02-22T20:36:10.913Z,98050.00
2023-02-22T20:38:39.052Z,98055.00
2023-02-22T20:41:08.089Z,98050.00
2023-02-22T20:43:36.348Z,98058.00
2023-02-22T20:46:06.435Z,98067.00
2023-02-22T20:48:34.698Z,98063.00
2023-02-22T20:51:06.348Z,98060.00
2023-02-22T20:53:35.352Z,98058.00
2023-02-22T20:56:03.552Z,98070.00
2023-02-22T20:58:31.685Z,98068.00
2023-02-22T21:01:06.159Z,98061.00
2023-02-22T21:03:34.256Z,98067.00
2023-02-22T21:06:02.480Z,98062.00
2023-02-22T21:08:31.260Z,98057.00
2023-02-22T21:10:59.407Z,98058.00
2023-02-22T21:13:27.533Z,98059.00
2023-02-22T21:15:55.692Z,98064.00
2023-02-22T21:18:25.233Z,98052.00
2023-02-22T21:20:53.840Z,98068.00
2023-02-22T21:23:22.003Z,98054.00
2023-02-22T21:25:53.130Z,98058.00
2023-02-22T21:28:21.286Z,98060.00
2023-02-22T21:30:49.770Z,98058.00
2023-02-22T21:33:17.936Z,98051.00
2023-02-22T21:35:47.500Z,98062.00
2023-02-22T21:38:15.670Z,98067.00
2023-02-22T21:40:44.577Z,98055.00
2023-02-22T21:43:13.119Z,98048.00
2023-02-22T21:45:41.204Z,98056.00
2023-02-22T21:48:14.251Z,98058.00
2023-02-22T21:50:42.780Z,98055.00
2023-02-22T21:53:12.769Z,98060.00
2023-02-22T21:55:40.991Z,98054.00
2023-02-22T21:58:09.571Z,98049.00
2023-02-22T22:00:42.660Z,98053.00
2023-02-22T22:03:12.802Z,98059.00
2023-02-22T22:05:45.176Z,98056.00
2023-02-22T22:08:19.471Z,98071.00
2023-02-22T22:10:55.229Z,98075.00
2023-02-22T22:13:23.470Z,98075.00
2023-02-22T22:15:51.586Z,98068.00
2023-02-22T22:18:19.780Z,98062.00
2023-02-22T22:20:51.641Z,98057.00
2023-02-22T22:23:21.085Z,98059.00
2023-02-22T22:25:51.331Z,98060.00
2023-02-22T22:28:19.441Z,98042.00
2023-02-22T22:30:48.701Z,98052.00
2023-02-22T22:33:17.718Z,98053.00
2023-02-22T22:35:45.766Z,98056.00
2023-02-22T22:38:15.455Z,98055.00
2023-02-22T22:40:50.907Z,98051.00
2023-02-22T22:43:19.651Z,98067.00
2023-02-22T22:45:47.702Z,98056.00
2023-02-22T22:48:15.724Z,98054.00
2023-02-22T22:50:46.486Z,98048.00
2023-02-22T22:53:16.375Z,98057.00
2023-02-22T22:55:45.904Z,98052.00
2023-02-22T22:58:14.324Z,98056.00
2023-02-22T23:00:42.490Z,98059.00
2023-02-22T23:03:16.673Z,98051.00
2023-02-22T23:05:46.223Z,98068.00
2023-02-22T23:08:14.291Z,98063.00
2023-02-22T23:10:42.379Z,98056.00
2023-02-22T23:13:12.606Z,98060.00
2023-02-22T23:15:42.840Z,98063.00
2023-02-22T23:18:11.023Z,98065.00
2023-02-22T23:20:39.496Z,98055.00
2023-02-22T23:23:07.654Z,98067.00
2023-02-22T23:25:38.927Z,98069.00
2023-02-22T23:28:14.727Z,98067.00
2023-02-22T23:30:44.256Z,98053.00
2023-02-22T23:33:13.004Z,98058.00
2023-02-22T23:35:42.474Z,98053.00
2023-02-22T23:38:11.302Z,98057.00
2023-02-22T23:40:39.401Z,98064.00
2023-02-22T23:43:07.698Z,98050.00
2023-02-22T23:45:38.697Z,98055.00
2023-02-22T23:48:08.313Z,98060.00
2023-02-22T23:50:37.012Z,98055.00
2023-02-22T23:53:06.040Z,98048.00
2023-02-22T23:55:39.112Z,98053.00
2023-02-22T23:58:07.239Z,98054.00
